Time;durP1;ratioP1;P1;durP2;ratioP2;P2;SDS_P1;SDS_P2;PMS_P1;PMS_P2;Temp;Humidity;BMP_temperature;BMP_pressure;BME280_temperature;BME280_humidity;BME280_pressure;Samples;Min_cycle;Max_cycle;Signal;HPM_P1;HPM_P2
2022/10/28 00:02:16;;;;;;;6.27;5.63;;;;;;;;;;4909762;29;20472;-76
2022/10/28 00:05:13;;;;;;;8.50;6.07;;;;;;;;;;4904779;29;20461;-76
2022/10/28 00:08:13;;;;;;;6.27;5.77;;;;;;;;;;4910388;29;20483;-78
2022/10/28 00:11:05;;;;;;;5.90;5.40;;;;;;;;;;4899176;29;21810;-77
2022/10/28 00:13:54;;;;;;;6.40;5.67;;;;;;;;;;4896096;29;20536;-76
2022/10/28 00:16:45;;;;;;;6.40;5.80;;;;;;;;;;4905020;29;22097;-76
2022/10/28 00:19:35;;;;;;;5.53;5.03;;;;;;;;;;4910234;29;20871;-75
2022/10/28 00:22:28;;;;;;;6.30;5.70;;;;;;;;;;4913672;29;21676;-75
2022/10/28 00:25:23;;;;;;;8.63;6.87;;;;;;;;;;4914356;29;20476;-75
2022/10/28 00:28:14;;;;;;;5.97;5.37;;;;;;;;;;4921601;29;20997;-74
2022/10/28 00:31:09;;;;;;;7.00;6.30;;;;;;;;;;4921253;29;20547;-74
2022/10/28 00:34:02;;;;;;;6.30;5.60;;;;;;;;;;4928145;29;20971;-74
2022/10/28 00:36:58;;;;;;;6.73;5.93;;;;;;;;;;4928222;29;20460;-75
2022/10/28 00:39:48;;;;;;;6.23;5.70;;;;;;;;;;4924438;29;20477;-78
2022/10/28 00:42:36;;;;;;;7.20;5.63;;;;;;;;;;4923657;29;20460;-75
2022/10/28 00:45:26;;;;;;;6.17;5.50;;;;;;;;;;4926757;29;20514;-74
2022/10/28 00:48:20;;;;;;;6.67;6.00;;;;;;;;;;4922808;29;20507;-75
2022/10/28 00:51:14;;;;;;;6.50;5.90;;;;;;;;;;4923731;29;20519;-75
2022/10/28 00:54:04;;;;;;;6.10;5.50;;;;;;;;;;4923962;29;21780;-74
2022/10/28 00:56:56;;;;;;;8.67;6.20;;;;;;;;;;4922340;29;20460;-77
2022/10/28 00:59:53;;;;;;;5.93;5.43;;;;;;;;;;4915249;29;20537;-76
2022/10/28 01:02:47;;;;;;;6.43;5.60;;;;;;;;;;4903845;29;20452;-78
2022/10/28 01:05:41;;;;;;;7.10;6.40;;;;;;;;;;4916739;29;20457;-73
2022/10/28 01:08:36;;;;;;;6.67;6.07;;;;;;;;;;4902758;29;20484;-75
2022/10/28 01:11:39;;;;;;;7.20;6.40;;;;;;;;;;4909116;29;20567;-75
2022/10/28 01:14:42;;;;;;;5.50;5.10;;;;;;;;;;4903439;29;20460;-74
2022/10/28 01:17:43;;;;;;;7.47;5.93;;;;;;;;;;4914371;29;20483;-76
2022/10/28 01:20:45;;;;;;;6.90;6.30;;;;;;;;;;4901482;29;20571;-77
2022/10/28 01:23:39;;;;;;;8.00;6.53;;;;;;;;;;4904790;29;20460;-77
2022/10/28 01:26:41;;;;;;;7.83;6.57;;;;;;;;;;4916099;29;20468;-75
2022/10/28 01:29:49;;;;;;;9.80;6.20;;;;;;;;;;4905267;28;20479;-76
2022/10/28 01:32:44;;;;;;;6.17;5.57;;;;;;;;;;4907237;29;20460;-75
2022/10/28 01:35:41;;;;;;;6.53;5.90;;;;;;;;;;4903645;29;20464;-75
2022/10/28 01:38:40;;;;;;;6.27;5.70;;;;;;;;;;4904605;29;20539;-75
2022/10/28 01:41:31;;;;;;;7.10;6.20;;;;;;;;;;4917590;29;20532;-77
2022/10/28 01:44:23;;;;;;;6.60;6.00;;;;;;;;;;4921719;29;21338;-76
2022/10/28 01:47:17;;;;;;;7.17;6.40;;;;;;;;;;4921171;29;20854;-75
2022/10/28 01:50:13;;;;;;;6.30;5.70;;;;;;;;;;4920319;29;21071;-75
2022/10/28 01:53:04;;;;;;;6.30;5.70;;;;;;;;;;4923208;29;20460;-74
2022/10/28 01:55:54;;;;;;;7.03;6.33;;;;;;;;;;4919448;29;20465;-76
2022/10/28 01:58:45;;;;;;;7.37;5.87;;;;;;;;;;4918877;29;20484;-75
2022/10/28 02:01:34;;;;;;;6.40;5.80;;;;;;;;;;4915771;29;20464;-74
2022/10/28 02:04:25;;;;;;;6.70;6.10;;;;;;;;;;4919518;29;20471;-75
2022/10/28 02:07:15;;;;;;;7.87;6.93;;;;;;;;;;4921079;29;20456;-75
2022/10/28 02:10:13;;;;;;;6.70;6.10;;;;;;;;;;4925265;29;20557;-74
2022/10/28 02:13:03;;;;;;;7.00;6.10;;;;;;;;;;4921512;29;21934;-74
2022/10/28 02:15:55;;;;;;;6.80;6.20;;;;;;;;;;4922055;29;20460;-74
2022/10/28 02:18:54;;;;;;;6.53;6.00;;;;;;;;;;4917467;29;20492;-76
2022/10/28 02:21:53;;;;;;;6.73;6.13;;;;;;;;;;4922361;29;20866;-75
2022/10/28 02:24:49;;;;;;;6.97;6.37;;;;;;;;;;4928621;29;20452;-75
2022/10/28 02:27:44;;;;;;;6.63;5.77;;;;;;;;;;4921624;29;21057;-74
2022/10/28 02:30:41;;;;;;;6.70;6.20;;;;;;;;;;4921734;29;20489;-75
2022/10/28 02:33:35;;;;;;;6.83;6.23;;;;;;;;;;4927800;29;20457;-74
2022/10/28 02:36:26;;;;;;;7.20;6.33;;;;;;;;;;4921062;29;20487;-74
2022/10/28 02:39:24;;;;;;;7.20;6.20;;;;;;;;;;4924474;29;20984;-75
2022/10/28 02:42:17;;;;;;;7.37;6.67;;;;;;;;;;4909449;29;20463;-76
2022/10/28 02:45:09;;;;;;;7.10;6.40;;;;;;;;;;4909228;29;20471;-76
2022/10/28 02:48:01;;;;;;;6.53;5.90;;;;;;;;;;4904871;29;20503;-76
2022/10/28 02:50:53;;;;;;;7.53;5.70;;;;;;;;;;4908334;29;20488;-75
2022/10/28 02:53:50;;;;;;;6.20;5.70;;;;;;;;;;4919268;29;20444;-74
2022/10/28 02:56:40;;;;;;;6.63;6.13;;;;;;;;;;4919447;29;20471;-74
2022/10/28 02:59:34;;;;;;;6.40;5.80;;;;;;;;;;4923254;29;20480;-74
2022/10/28 03:02:23;;;;;;;8.93;5.33;;;;;;;;;;4927533;29;20449;-76
2022/10/28 03:05:15;;;;;;;7.10;6.00;;;;;;;;;;4909927;29;20547;-75
2022/10/28 03:08:05;;;;;;;6.40;5.80;;;;;;;;;;4910282;29;20486;-74
2022/10/28 03:11:02;;;;;;;7.30;6.57;;;;;;;;;;4908617;29;20591;-76
2022/10/28 03:13:52;;;;;;;6.07;5.50;;;;;;;;;;4913186;29;21123;-77
2022/10/28 03:16:48;;;;;;;7.60;6.20;;;;;;;;;;4919134;29;20461;-75
2022/10/28 03:19:47;;;;;;;6.63;5.90;;;;;;;;;;4921936;29;21030;-75
2022/10/28 03:22:36;;;;;;;6.57;5.97;;;;;;;;;;4909679;28;20466;-75
2022/10/28 03:25:27;;;;;;;6.80;6.20;;;;;;;;;;4903540;29;21333;-74
2022/10/28 03:28:15;;;;;;;6.97;6.37;;;;;;;;;;4905015;29;20484;-75
2022/10/28 03:31:04;;;;;;;7.07;6.03;;;;;;;;;;4912867;29;22997;-73
2022/10/28 03:33:56;;;;;;;8.33;5.57;;;;;;;;;;4921068;29;20457;-73
2022/10/28 03:36:47;;;;;;;6.90;6.20;;;;;;;;;;4924785;29;20832;-75
2022/10/28 03:39:40;;;;;;;6.70;6.10;;;;;;;;;;4927471;29;20567;-73
2022/10/28 03:42:35;;;;;;;6.53;6.03;;;;;;;;;;4908772;29;20562;-74
2022/10/28 03:45:28;;;;;;;6.80;6.10;;;;;;;;;;4922061;29;20460;-73
2022/10/28 03:48:24;;;;;;;6.50;5.90;;;;;;;;;;4921989;29;20873;-73
2022/10/28 03:51:13;;;;;;;6.30;5.70;;;;;;;;;;4922980;29;20484;-73
2022/10/28 03:54:02;;;;;;;6.47;5.70;;;;;;;;;;4916581;29;20631;-73
2022/10/28 03:56:57;;;;;;;6.30;5.70;;;;;;;;;;4917881;29;20456;-77
2022/10/28 03:59:49;;;;;;;7.10;6.50;;;;;;;;;;4904777;29;20559;-76
2022/10/28 04:02:37;;;;;;;8.37;6.87;;;;;;;;;;4904040;29;20472;-75
2022/10/28 04:05:32;;;;;;;7.17;6.57;;;;;;;;;;4916570;29;20472;-76
2022/10/28 04:08:24;;;;;;;7.57;6.37;;;;;;;;;;4902327;29;20484;-76
2022/10/28 04:11:13;;;;;;;7.50;6.57;;;;;;;;;;4922767;29;20519;-75
2022/10/28 04:14:01;;;;;;;6.37;5.87;;;;;;;;;;4920089;29;20460;-76
2022/10/28 04:16:50;;;;;;;7.60;6.10;;;;;;;;;;4919118;29;20488;-77
2022/10/28 04:19:38;;;;;;;7.17;6.47;;;;;;;;;;4921071;29;20495;-76
2022/10/28 04:22:30;;;;;;;6.87;6.30;;;;;;;;;;4920763;29;20480;-75
2022/10/28 04:25:22;;;;;;;6.87;6.13;;;;;;;;;;4914386;29;20923;-76
2022/10/28 04:28:13;;;;;;;7.80;6.87;;;;;;;;;;4920854;29;20481;-75
2022/10/28 04:31:05;;;;;;;7.70;7.00;;;;;;;;;;4921338;29;20477;-76
2022/10/28 04:34:01;;;;;;;7.47;6.30;;;;;;;;;;4925090;29;20463;-77
2022/10/28 04:36:51;;;;;;;8.10;7.40;;;;;;;;;;4925223;29;20471;-76
2022/10/28 04:39:44;;;;;;;8.10;7.30;;;;;;;;;;4927006;29;20484;-77
2022/10/28 04:42:33;;;;;;;11.03;7.40;;;;;;;;;;4914281;29;20468;-75
2022/10/28 04:45:29;;;;;;;8.90;7.13;;;;;;;;;;4916948;29;22654;-76
2022/10/28 04:48:21;;;;;;;7.60;6.80;;;;;;;;;;4922206;29;20484;-74
2022/10/28 04:51:15;;;;;;;9.20;7.23;;;;;;;;;;4922215;29;20507;-74
2022/10/28 04:54:05;;;;;;;8.23;6.73;;;;;;;;;;4918477;29;20469;-74
2022/10/28 04:57:03;;;;;;;7.43;6.63;;;;;;;;;;4923834;28;20464;-74
2022/10/28 05:00:04;;;;;;;9.60;6.50;;;;;;;;;;4919262;29;20850;-75
2022/10/28 05:02:55;;;;;;;7.17;6.47;;;;;;;;;;4896092;29;20472;-73
2022/10/28 05:05:49;;;;;;;7.17;6.57;;;;;;;;;;4899002;29;20468;-77
2022/10/28 05:08:49;;;;;;;7.50;6.80;;;;;;;;;;4906133;29;22557;-75
2022/10/28 05:11:42;;;;;;;7.90;7.30;;;;;;;;;;4903732;29;21021;-74
2022/10/28 05:14:33;;;;;;;6.70;6.20;;;;;;;;;;4902362;29;20477;-74
2022/10/28 05:17:26;;;;;;;8.00;7.20;;;;;;;;;;4906860;29;20522;-74
2022/10/28 05:20:15;;;;;;;9.77;7.57;;;;;;;;;;4900805;29;20570;-74
2022/10/28 05:23:06;;;;;;;8.03;7.27;;;;;;;;;;4920595;29;20591;-74
2022/10/28 05:25:55;;;;;;;7.60;6.90;;;;;;;;;;4908925;29;20452;-76
2022/10/28 05:28:43;;;;;;;9.90;6.90;;;;;;;;;;4907752;29;20497;-74
2022/10/28 05:31:35;;;;;;;8.80;7.40;;;;;;;;;;4906115;29;20484;-75
2022/10/28 05:34:29;;;;;;;8.43;7.60;;;;;;;;;;4911273;29;20903;-75
2022/10/28 05:37:22;;;;;;;10.20;7.70;;;;;;;;;;4898025;29;20577;-75
2022/10/28 05:40:11;;;;;;;7.90;7.20;;;;;;;;;;4890536;29;20520;-75
2022/10/28 05:43:00;;;;;;;7.70;7.00;;;;;;;;;;4888136;29;20464;-74
2022/10/28 05:45:52;;;;;;;9.27;7.80;;;;;;;;;;4891863;29;21076;-73
2022/10/28 05:48:41;;;;;;;8.97;7.30;;;;;;;;;;4902821;29;20489;-74
2022/10/28 05:51:31;;;;;;;9.10;6.77;;;;;;;;;;4912628;29;20605;-76
2022/10/28 05:54:19;;;;;;;10.43;7.70;;;;;;;;;;4912420;29;20631;-74
2022/10/28 05:57:08;;;;;;;9.20;7.70;;;;;;;;;;4895172;29;20745;-75
2022/10/28 05:59:56;;;;;;;10.10;7.73;;;;;;;;;;4904772;29;20507;-75
2022/10/28 06:02:45;;;;;;;10.63;7.77;;;;;;;;;;4895060;29;20974;-74
2022/10/28 06:05:35;;;;;;;8.87;7.80;;;;;;;;;;4888541;29;20464;-78
2022/10/28 06:08:28;;;;;;;10.47;8.30;;;;;;;;;;4887969;29;20492;-76
2022/10/28 06:11:16;;;;;;;8.67;7.77;;;;;;;;;;4899458;29;20538;-77
2022/10/28 06:14:05;;;;;;;8.37;7.57;;;;;;;;;;4898022;29;20496;-77
2022/10/28 06:16:54;;;;;;;9.60;7.87;;;;;;;;;;4904866;29;20463;-78
2022/10/28 06:19:42;;;;;;;8.97;8.07;;;;;;;;;;4905618;29;20881;-75
2022/10/28 06:22:31;;;;;;;8.77;7.00;;;;;;;;;;4921044;29;20464;-77
2022/10/28 06:25:21;;;;;;;10.13;7.87;;;;;;;;;;4906791;29;20468;-75
2022/10/28 06:28:10;;;;;;;9.73;7.63;;;;;;;;;;4921517;29;20486;-76
2022/10/28 06:31:02;;;;;;;8.57;6.83;;;;;;;;;;4922407;29;20476;-76
2022/10/28 06:33:51;;;;;;;8.93;7.73;;;;;;;;;;4922030;29;20523;-75
2022/10/28 06:36:41;;;;;;;11.47;7.90;;;;;;;;;;4922645;29;20475;-74
2022/10/28 06:39:29;;;;;;;11.00;8.13;;;;;;;;;;4918064;29;20588;-74
2022/10/28 06:42:20;;;;;;;10.10;7.80;;;;;;;;;;4920535;29;20456;-75
2022/10/28 06:45:08;;;;;;;10.20;8.10;;;;;;;;;;4920277;29;20464;-74
2022/10/28 06:47:57;;;;;;;9.17;8.33;;;;;;;;;;4919119;29;22252;-75
2022/10/28 06:50:46;;;;;;;9.63;8.40;;;;;;;;;;4915354;29;20515;-74
2022/10/28 06:53:34;;;;;;;11.33;8.47;;;;;;;;;;4919007;29;20484;-76
2022/10/28 06:56:23;;;;;;;12.33;8.57;;;;;;;;;;4919482;29;20964;-76
2022/10/28 06:59:13;;;;;;;10.03;8.00;;;;;;;;;;4913480;29;20484;-76
2022/10/28 07:02:02;;;;;;;9.37;8.23;;;;;;;;;;4918827;29;20552;-76
2022/10/28 07:04:51;;;;;;;9.80;8.10;;;;;;;;;;4923069;29;20468;-77
2022/10/28 07:07:39;;;;;;;10.03;8.50;;;;;;;;;;4918178;29;20449;-76
2022/10/28 07:10:28;;;;;;;9.50;8.00;;;;;;;;;;4922800;29;20468;-76
2022/10/28 07:13:16;;;;;;;10.73;8.20;;;;;;;;;;4916128;29;20578;-75
2022/10/28 07:16:06;;;;;;;9.10;8.20;;;;;;;;;;4915398;29;20548;-76
2022/10/28 07:18:55;;;;;;;11.50;9.23;;;;;;;;;;4891399;29;20575;-77
2022/10/28 07:21:44;;;;;;;9.40;7.63;;;;;;;;;;4914903;29;20500;-74
2022/10/28 07:24:32;;;;;;;11.70;8.43;;;;;;;;;;4906535;29;20448;-78
2022/10/28 07:27:21;;;;;;;9.23;8.17;;;;;;;;;;4900614;29;20693;-75
2022/10/28 07:30:10;;;;;;;12.80;9.60;;;;;;;;;;4903734;28;20511;-76
2022/10/28 07:33:03;;;;;;;10.90;8.80;;;;;;;;;;4905767;29;20538;-75
2022/10/28 07:35:51;;;;;;;9.90;8.60;;;;;;;;;;4920188;29;20457;-76
2022/10/28 07:38:40;;;;;;;9.03;8.13;;;;;;;;;;4895870;29;20487;-76
2022/10/28 07:41:29;;;;;;;10.23;8.63;;;;;;;;;;4903576;29;20499;-75
2022/10/28 07:44:17;;;;;;;11.40;8.83;;;;;;;;;;4897983;29;20487;-76
2022/10/28 07:47:07;;;;;;;9.47;8.57;;;;;;;;;;4899051;29;20553;-75
2022/10/28 07:49:57;;;;;;;9.13;8.23;;;;;;;;;;4900763;29;21052;-77
2022/10/28 07:52:45;;;;;;;10.63;8.67;;;;;;;;;;4918933;29;20461;-76
2022/10/28 07:55:34;;;;;;;14.90;8.40;;;;;;;;;;4897150;29;20465;-76
2022/10/28 07:58:24;;;;;;;10.63;9.33;;;;;;;;;;4907171;29;21016;-78
2022/10/28 08:01:17;;;;;;;10.47;8.07;;;;;;;;;;4900951;29;20539;-75
2022/10/28 08:04:08;;;;;;;9.23;8.33;;;;;;;;;;4900186;29;20469;-76
2022/10/28 08:06:59;;;;;;;9.90;8.33;;;;;;;;;;4903907;29;20468;-75
2022/10/28 08:09:48;;;;;;;9.70;8.70;;;;;;;;;;4891436;29;20640;-77
2022/10/28 08:12:37;;;;;;;11.07;7.83;;;;;;;;;;4886452;29;20514;-76
2022/10/28 08:15:25;;;;;;;9.70;8.03;;;;;;;;;;4894409;29;20476;-74
2022/10/28 08:18:14;;;;;;;10.90;8.60;;;;;;;;;;4886142;29;20479;-76
2022/10/28 08:21:04;;;;;;;9.90;8.80;;;;;;;;;;4897561;29;20523;-76
2022/10/28 08:23:54;;;;;;;9.23;8.20;;;;;;;;;;4902068;29;20698;-75
2022/10/28 08:26:42;;;;;;;10.90;8.70;;;;;;;;;;4886454;29;20873;-77
2022/10/28 08:29:31;;;;;;;10.33;8.30;;;;;;;;;;4911935;29;20678;-74
2022/10/28 08:32:19;;;;;;;13.00;8.70;;;;;;;;;;4909194;29;20964;-76
2022/10/28 08:35:09;;;;;;;10.10;8.00;;;;;;;;;;4903023;29;20484;-74
2022/10/28 08:37:57;;;;;;;12.30;8.30;;;;;;;;;;4906406;29;20491;-74
2022/10/28 08:40:56;;;;;;;12.10;7.83;;;;;;;;;;4911821;29;20492;-74
2022/10/28 08:43:52;;;;;;;9.80;7.20;;;;;;;;;;4908771;29;20457;-75
2022/10/28 08:46:53;;;;;;;8.80;7.07;;;;;;;;;;4905809;29;20452;-75
2022/10/28 08:49:42;;;;;;;9.67;7.53;;;;;;;;;;4913038;29;20488;-78
2022/10/28 08:52:40;;;;;;;7.90;7.07;;;;;;;;;;4916592;29;20465;-75
2022/10/28 08:55:30;;;;;;;12.50;7.70;;;;;;;;;;4919860;29;20492;-75
2022/10/28 08:58:23;;;;;;;10.10;7.17;;;;;;;;;;4910251;29;20503;-76
2022/10/28 09:01:17;;;;;;;9.83;7.73;;;;;;;;;;4911947;29;20495;-77
2022/10/28 09:04:17;;;;;;;8.77;7.47;;;;;;;;;;4891202;29;20468;-76
2022/10/28 09:07:10;;;;;;;9.83;7.23;;;;;;;;;;4893213;29;20460;-75
2022/10/28 09:10:00;;;;;;;7.87;6.67;;;;;;;;;;4903156;29;20611;-75
2022/10/28 09:12:57;;;;;;;9.60;6.90;;;;;;;;;;4897343;29;20453;-76
2022/10/28 09:15:51;;;;;;;10.07;6.90;;;;;;;;;;4899070;29;22494;-76
2022/10/28 09:18:52;;;;;;;10.73;6.83;;;;;;;;;;4903091;29;20484;-75
2022/10/28 09:21:46;;;;;;;8.33;5.87;;;;;;;;;;4914797;29;20480;-75
2022/10/28 09:24:41;;;;;;;8.10;6.50;;;;;;;;;;4911710;29;20457;-77
2022/10/28 09:27:48;;;;;;;12.00;6.70;;;;;;;;;;4898584;29;20556;-76
2022/10/28 09:30:41;;;;;;;8.43;6.17;;;;;;;;;;4896397;29;20650;-75
2022/10/28 09:33:46;;;;;;;10.13;6.30;;;;;;;;;;4893146;29;20932;-77
2022/10/28 09:36:37;;;;;;;9.50;6.57;;;;;;;;;;4899006;29;21070;-76
2022/10/28 09:39:30;;;;;;;7.70;5.60;;;;;;;;;;4894836;29;21083;-77
2022/10/28 09:42:21;;;;;;;6.90;5.80;;;;;;;;;;4898084;29;20469;-75
2022/10/28 09:45:13;;;;;;;8.87;6.60;;;;;;;;;;4890175;29;20488;-75
2022/10/28 09:48:03;;;;;;;11.83;6.33;;;;;;;;;;4895918;29;20534;-77
2022/10/28 09:50:54;;;;;;;11.67;6.00;;;;;;;;;;4903026;29;20485;-75
2022/10/28 09:53:44;;;;;;;9.33;5.63;;;;;;;;;;4908995;29;22082;-79
2022/10/28 09:56:33;;;;;;;6.23;5.63;;;;;;;;;;4900390;29;21508;-76
2022/10/28 09:59:21;;;;;;;11.73;6.30;;;;;;;;;;4899996;29;20543;-78
2022/10/28 10:02:22;;;;;;;13.97;6.47;;;;;;;;;;4897985;29;21239;-76
2022/10/28 10:05:12;;;;;;;6.93;5.20;;;;;;;;;;4913090;29;20603;-76
2022/10/28 10:08:06;;;;;;;6.90;5.80;;;;;;;;;;4897348;29;20584;-75
2022/10/28 10:10:59;;;;;;;12.27;6.40;;;;;;;;;;4908011;29;20476;-75
2022/10/28 10:13:48;;;;;;;8.87;5.97;;;;;;;;;;4886444;29;20449;-75
2022/10/28 10:16:39;;;;;;;7.90;5.67;;;;;;;;;;4895478;29;20556;-75
2022/10/28 10:19:28;;;;;;;10.90;6.37;;;;;;;;;;4890796;29;20527;-75
2022/10/28 10:22:31;;;;;;;11.37;5.33;;;;;;;;;;4902804;29;20472;-75
2022/10/28 10:25:28;;;;;;;8.73;5.77;;;;;;;;;;4896571;29;20468;-77
2022/10/28 10:28:17;;;;;;;7.43;6.00;;;;;;;;;;4912369;29;20484;-75
2022/10/28 10:31:06;;;;;;;8.80;5.90;;;;;;;;;;4910411;29;20488;-75
2022/10/28 10:33:57;;;;;;;7.33;5.30;;;;;;;;;;4917475;29;20456;-75
2022/10/28 10:36:54;;;;;;;8.50;5.50;;;;;;;;;;4914619;29;20464;-75
2022/10/28 10:39:43;;;;;;;7.60;5.23;;;;;;;;;;4911083;29;20491;-75
2022/10/28 10:42:33;;;;;;;10.50;6.07;;;;;;;;;;4911760;29;20461;-76
2022/10/28 10:45:39;;;;;;;8.63;5.50;;;;;;;;;;4899336;29;21007;-76
2022/10/28 10:48:27;;;;;;;10.33;5.37;;;;;;;;;;4915260;29;20535;-75
2022/10/28 10:51:18;;;;;;;10.40;4.90;;;;;;;;;;4916945;29;20490;-76
2022/10/28 10:54:07;;;;;;;8.77;4.10;;;;;;;;;;4917766;29;20464;-74
2022/10/28 10:57:06;;;;;;;8.30;4.70;;;;;;;;;;4900806;29;20870;-74
2022/10/28 10:59:57;;;;;;;8.57;4.60;;;;;;;;;;4897307;29;20575;-75
2022/10/28 11:02:46;;;;;;;6.90;4.53;;;;;;;;;;4903131;28;20543;-75
2022/10/28 11:05:48;;;;;;;7.97;4.33;;;;;;;;;;4892624;29;20488;-75
2022/10/28 11:08:57;;;;;;;5.77;4.23;;;;;;;;;;4891502;29;20571;-75
2022/10/28 11:11:46;;;;;;;7.63;4.00;;;;;;;;;;4894573;29;20472;-75
2022/10/28 11:14:36;;;;;;;8.90;4.47;;;;;;;;;;4894884;29;20483;-75
2022/10/28 11:17:28;;;;;;;5.57;3.97;;;;;;;;;;4914021;29;20984;-75
2022/10/28 11:20:23;;;;;;;7.00;4.50;;;;;;;;;;4905531;29;20488;-75
2022/10/28 11:23:27;;;;;;;8.23;4.27;;;;;;;;;;4906585;29;20460;-75
2022/10/28 11:26:17;;;;;;;6.80;3.90;;;;;;;;;;4913189;29;20513;-75
2022/10/28 11:29:09;;;;;;;11.40;4.00;;;;;;;;;;4906527;29;21038;-75
2022/10/28 11:32:16;;;;;;;6.43;3.83;;;;;;;;;;4916992;29;20468;-75
2022/10/28 11:35:21;;;;;;;7.17;4.10;;;;;;;;;;4923605;29;20488;-76
2022/10/28 11:38:17;;;;;;;9.47;4.00;;;;;;;;;;4915280;29;20495;-75
2022/10/28 11:41:16;;;;;;;5.97;4.00;;;;;;;;;;4916447;29;20488;-76
2022/10/28 11:44:11;;;;;;;7.33;4.07;;;;;;;;;;4914330;29;20468;-76
2022/10/28 11:47:08;;;;;;;4.80;3.43;;;;;;;;;;4895639;29;20457;-75
2022/10/28 11:50:10;;;;;;;8.57;4.50;;;;;;;;;;4899030;29;20496;-75
2022/10/28 11:53:15;;;;;;;10.43;3.93;;;;;;;;;;4902355;29;20489;-74
2022/10/28 11:56:09;;;;;;;5.93;3.63;;;;;;;;;;4903998;28;20546;-75
2022/10/28 11:59:05;;;;;;;7.33;3.93;;;;;;;;;;4899623;29;20499;-75
2022/10/28 12:02:01;;;;;;;6.97;3.80;;;;;;;;;;4907354;29;20555;-74
2022/10/28 12:04:54;;;;;;;7.90;3.93;;;;;;;;;;4902593;29;20990;-74
2022/10/28 12:07:52;;;;;;;8.53;4.13;;;;;;;;;;4905223;28;20453;-74
2022/10/28 12:10:56;;;;;;;5.90;3.80;;;;;;;;;;4905880;29;20488;-75
2022/10/28 12:13:49;;;;;;;8.40;4.57;;;;;;;;;;4905537;29;20522;-74
2022/10/28 12:16:40;;;;;;;6.33;3.93;;;;;;;;;;4905199;29;20497;-75
2022/10/28 12:19:30;;;;;;;5.57;3.53;;;;;;;;;;4914022;29;20570;-74
2022/10/28 12:22:22;;;;;;;6.50;3.97;;;;;;;;;;4914555;29;20468;-75
2022/10/28 12:25:14;;;;;;;6.97;3.90;;;;;;;;;;4903320;29;20638;-75
2022/10/28 12:28:09;;;;;;;4.30;3.40;;;;;;;;;;4893728;29;20563;-75
2022/10/28 12:30:59;;;;;;;5.10;3.60;;;;;;;;;;4903992;29;20475;-74
2022/10/28 12:33:49;;;;;;;6.00;3.70;;;;;;;;;;4898093;29;21093;-76
2022/10/28 12:36:42;;;;;;;8.30;3.87;;;;;;;;;;4895959;29;20480;-73
2022/10/28 12:39:33;;;;;;;8.33;4.30;;;;;;;;;;4899660;29;20480;-71
2022/10/28 12:42:24;;;;;;;8.13;4.00;;;;;;;;;;4910698;29;20470;-71
2022/10/28 12:45:16;;;;;;;6.67;3.60;;;;;;;;;;4896301;29;20926;-72
2022/10/28 12:48:07;;;;;;;8.30;4.50;;;;;;;;;;4907098;29;20540;-71
2022/10/28 12:50:57;;;;;;;8.83;4.13;;;;;;;;;;4912859;29;20874;-71
2022/10/28 12:53:47;;;;;;;8.97;4.20;;;;;;;;;;4918492;29;20550;-71
2022/10/28 12:56:38;;;;;;;5.10;3.80;;;;;;;;;;4909754;29;20484;-71
2022/10/28 12:59:31;;;;;;;8.20;4.20;;;;;;;;;;4902010;29;20583;-71
2022/10/28 13:02:25;;;;;;;6.43;3.73;;;;;;;;;;4907213;29;21495;-73
2022/10/28 13:05:19;;;;;;;9.23;4.40;;;;;;;;;;4910539;29;20460;-72
2022/10/28 13:08:17;;;;;;;7.60;3.97;;;;;;;;;;4906500;29;20484;-72
2022/10/28 13:11:26;;;;;;;6.43;3.80;;;;;;;;;;4905856;29;20492;-71
2022/10/28 13:14:20;;;;;;;6.07;4.03;;;;;;;;;;4911832;29;20472;-72
2022/10/28 13:17:18;;;;;;;6.73;4.40;;;;;;;;;;4901504;29;20499;-72
2022/10/28 13:20:13;;;;;;;9.80;4.40;;;;;;;;;;4912141;29;20492;-74
2022/10/28 13:23:04;;;;;;;7.70;4.77;;;;;;;;;;4895886;29;20817;-72
2022/10/28 13:25:58;;;;;;;6.20;4.07;;;;;;;;;;4911695;29;20921;-73
2022/10/28 13:28:48;;;;;;;5.93;3.80;;;;;;;;;;4908297;29;20979;-73
2022/10/28 13:31:41;;;;;;;8.93;4.87;;;;;;;;;;4906703;29;20476;-73
2022/10/28 13:34:31;;;;;;;9.90;4.40;;;;;;;;;;4913172;29;20492;-76
2022/10/28 13:37:23;;;;;;;8.87;4.50;;;;;;;;;;4913670;29;20614;-75
2022/10/28 13:40:21;;;;;;;7.17;4.67;;;;;;;;;;4893044;29;20547;-76
2022/10/28 13:43:18;;;;;;;6.33;4.70;;;;;;;;;;4906946;29;21030;-76
2022/10/28 13:46:07;;;;;;;5.87;3.97;;;;;;;;;;4922715;29;20544;-75
2022/10/28 13:49:15;;;;;;;7.23;5.20;;;;;;;;;;4922308;29;20472;-75
2022/10/28 13:52:04;;;;;;;12.13;5.40;;;;;;;;;;4921734;29;21121;-76
2022/10/28 13:54:57;;;;;;;13.87;4.90;;;;;;;;;;4923255;29;20465;-76
2022/10/28 13:57:47;;;;;;;7.77;4.50;;;;;;;;;;4924114;29;20967;-76
2022/10/28 14:00:37;;;;;;;9.77;4.83;;;;;;;;;;4920753;29;21579;-78
2022/10/28 14:03:27;;;;;;;7.33;4.67;;;;;;;;;;4920306;29;20547;-75
2022/10/28 14:06:30;;;;;;;8.63;4.87;;;;;;;;;;4913316;29;20543;-75
2022/10/28 14:09:21;;;;;;;7.40;4.03;;;;;;;;;;4912498;29;20476;-75
2022/10/28 14:12:16;;;;;;;7.13;4.63;;;;;;;;;;4914648;29;20830;-76
2022/10/28 14:15:07;;;;;;;6.97;4.43;;;;;;;;;;4914337;29;20844;-77
2022/10/28 14:17:57;;;;;;;7.33;5.00;;;;;;;;;;4919968;29;20472;-75
2022/10/28 14:21:03;;;;;;;9.33;4.60;;;;;;;;;;4912044;29;20611;-75
2022/10/28 14:24:16;;;;;;;7.37;4.70;;;;;;;;;;4916622;29;20468;-75
2022/10/28 14:27:26;;;;;;;11.93;4.70;;;;;;;;;;4920774;29;20547;-75
2022/10/28 14:30:21;;;;;;;7.30;4.90;;;;;;;;;;4916238;29;20484;-76
2022/10/28 14:33:30;;;;;;;9.33;5.10;;;;;;;;;;4922604;29;20461;-77
2022/10/28 14:36:26;;;;;;;10.90;4.70;;;;;;;;;;4918613;29;20479;-75
2022/10/28 14:39:29;;;;;;;7.10;4.33;;;;;;;;;;4920571;29;20482;-75
2022/10/28 14:42:26;;;;;;;9.03;5.03;;;;;;;;;;4912045;29;20566;-75
2022/10/28 14:45:21;;;;;;;7.87;5.03;;;;;;;;;;4908158;29;20496;-75
2022/10/28 14:48:18;;;;;;;9.77;4.50;;;;;;;;;;4899909;29;20518;-75
2022/10/28 14:51:10;;;;;;;9.60;5.20;;;;;;;;;;4899607;29;20472;-76
2022/10/28 14:54:00;;;;;;;13.53;4.90;;;;;;;;;;4910433;29;20464;-75
2022/10/28 14:56:49;;;;;;;9.70;5.03;;;;;;;;;;4904328;29;20488;-73
2022/10/28 14:59:38;;;;;;;7.33;5.20;;;;;;;;;;4903677;29;20977;-74
2022/10/28 15:02:30;;;;;;;8.57;5.03;;;;;;;;;;4905678;29;21841;-74
2022/10/28 15:05:20;;;;;;;7.00;4.70;;;;;;;;;;4917463;29;20484;-74
2022/10/28 15:08:11;;;;;;;10.90;5.43;;;;;;;;;;4918067;29;20624;-74
2022/10/28 15:10:59;;;;;;;8.90;4.50;;;;;;;;;;4919305;29;20487;-75
2022/10/28 15:13:49;;;;;;;7.47;4.50;;;;;;;;;;4919153;29;20456;-75
2022/10/28 15:16:46;;;;;;;14.23;5.10;;;;;;;;;;4919049;29;20491;-76
2022/10/28 15:19:37;;;;;;;8.27;5.40;;;;;;;;;;4927062;29;20564;-74
2022/10/28 15:22:27;;;;;;;9.67;4.60;;;;;;;;;;4922536;29;21027;-74
2022/10/28 15:25:16;;;;;;;8.07;5.43;;;;;;;;;;4907628;29;21016;-74
2022/10/28 15:28:05;;;;;;;10.00;5.20;;;;;;;;;;4915008;29;20554;-74
2022/10/28 15:30:53;;;;;;;10.67;5.70;;;;;;;;;;4921128;29;20496;-75
2022/10/28 15:33:42;;;;;;;8.53;5.50;;;;;;;;;;4921497;29;20460;-75
2022/10/28 15:36:32;;;;;;;15.90;5.57;;;;;;;;;;4911034;29;21000;-76
2022/10/28 15:39:21;;;;;;;7.20;5.20;;;;;;;;;;4922301;29;20488;-74
2022/10/28 15:42:29;;;;;;;9.40;5.63;;;;;;;;;;4919319;29;20468;-75
2022/10/28 15:45:19;;;;;;;14.03;6.33;;;;;;;;;;4929957;29;20973;-74
2022/10/28 15:48:12;;;;;;;8.07;6.00;;;;;;;;;;4923064;29;21101;-73
2022/10/28 15:51:18;;;;;;;12.47;6.47;;;;;;;;;;4927074;29;20901;-74
2022/10/28 15:54:12;;;;;;;7.77;5.70;;;;;;;;;;4927892;29;21216;-75
2022/10/28 15:57:00;;;;;;;9.60;6.50;;;;;;;;;;4926585;29;20476;-73
2022/10/28 15:59:51;;;;;;;10.47;7.10;;;;;;;;;;4928495;29;20485;-74
2022/10/28 16:02:44;;;;;;;11.97;6.57;;;;;;;;;;4931245;29;20466;-74
2022/10/28 16:05:43;;;;;;;10.80;6.10;;;;;;;;;;4925136;29;20465;-73
2022/10/28 16:08:33;;;;;;;9.23;6.60;;;;;;;;;;4918784;29;20477;-74
2022/10/28 16:11:22;;;;;;;7.77;5.80;;;;;;;;;;4921392;29;20503;-74
2022/10/28 16:14:24;;;;;;;15.17;6.60;;;;;;;;;;4919348;29;20456;-74
2022/10/28 16:17:14;;;;;;;11.43;7.57;;;;;;;;;;4925592;29;20861;-74
2022/10/28 16:20:04;;;;;;;11.63;6.80;;;;;;;;;;4922700;29;20511;-74
2022/10/28 16:22:53;;;;;;;8.00;6.20;;;;;;;;;;4922584;29;20967;-75
2022/10/28 16:25:42;;;;;;;11.77;7.03;;;;;;;;;;4906141;29;20543;-75
2022/10/28 16:28:32;;;;;;;12.20;7.20;;;;;;;;;;4910959;29;20492;-75
2022/10/28 16:31:22;;;;;;;12.77;7.20;;;;;;;;;;4920872;29;20488;-75
2022/10/28 16:34:14;;;;;;;15.30;8.70;;;;;;;;;;4916907;29;20456;-78
2022/10/28 16:37:02;;;;;;;13.00;8.00;;;;;;;;;;4922796;29;20461;-75
2022/10/28 16:39:51;;;;;;;14.47;8.03;;;;;;;;;;4918100;29;20485;-74
2022/10/28 16:42:40;;;;;;;9.03;7.40;;;;;;;;;;4918678;29;20480;-75
2022/10/28 16:45:31;;;;;;;12.90;7.80;;;;;;;;;;4912990;29;20480;-75
2022/10/28 16:48:20;;;;;;;11.60;6.90;;;;;;;;;;4914796;29;21000;-75
2022/10/28 16:51:12;;;;;;;8.93;7.27;;;;;;;;;;4920669;29;20517;-75
2022/10/28 16:54:00;;;;;;;7.67;6.93;;;;;;;;;;4915635;29;21496;-75
2022/10/28 16:56:49;;;;;;;11.13;7.67;;;;;;;;;;4918936;29;20465;-74
2022/10/28 16:59:37;;;;;;;9.60;7.33;;;;;;;;;;4917026;29;20516;-74
2022/10/28 17:02:28;;;;;;;12.73;7.00;;;;;;;;;;4914805;29;20469;-75
2022/10/28 17:05:19;;;;;;;9.77;7.27;;;;;;;;;;4915743;29;20972;-73
2022/10/28 17:08:07;;;;;;;12.10;8.57;;;;;;;;;;4917529;29;20483;-74
2022/10/28 17:10:57;;;;;;;10.70;7.80;;;;;;;;;;4914070;29;20484;-74
2022/10/28 17:13:46;;;;;;;12.50;8.17;;;;;;;;;;4916656;29;20558;-73